createdAt,value
2019-05-13T00:02:18.341Z,5.76
2019-05-13T00:04:57.488Z,5.69
2019-05-13T00:07:25.854Z,5.65
2019-05-13T00:09:54.445Z,5.59
2019-05-13T00:12:24.003Z,5.59
2019-05-13T00:14:50.926Z,5.57
2019-05-13T00:17:19.309Z,5.58
2019-05-13T00:19:47.652Z,5.60
2019-05-13T00:22:16.015Z,5.59
2019-05-13T00:24:44.467Z,5.67
2019-05-13T00:27:14.115Z,5.70
2019-05-13T00:29:44.479Z,5.76
2019-05-13T00:32:13.491Z,5.80
2019-05-13T00:34:40.736Z,5.76
2019-05-13T00:37:11.698Z,5.76
2019-05-13T00:39:37.468Z,5.80
2019-05-13T00:42:05.850Z,5.91
2019-05-13T00:44:36.200Z,5.87
2019-05-13T00:47:04.740Z,5.92
2019-05-13T00:49:34.563Z,5.86
2019-05-13T00:52:03.703Z,5.86
2019-05-13T00:54:29.637Z,5.83
2019-05-13T00:56:57.995Z,5.93
2019-05-13T00:59:27.317Z,6.00
2019-05-13T01:01:55.687Z,5.80
2019-05-13T01:04:24.041Z,5.71
2019-05-13T01:06:53.783Z,5.74
2019-05-13T01:09:20.740Z,5.74
2019-05-13T01:11:49.091Z,5.76
2019-05-13T01:14:17.432Z,5.83
2019-05-13T01:16:45.797Z,5.79
2019-05-13T01:19:15.097Z,5.70
2019-05-13T01:21:44.421Z,5.75
2019-05-13T01:24:14.516Z,5.79
2019-05-13T01:26:44.865Z,5.74
2019-05-13T01:29:13.573Z,5.71
2019-05-13T01:31:43.475Z,5.75
2019-05-13T01:34:09.914Z,5.79
2019-05-13T01:36:39.234Z,5.85
2019-05-13T01:39:07.621Z,5.85
2019-05-13T01:41:35.960Z,5.87
2019-05-13T01:44:06.221Z,5.80
2019-05-13T01:46:34.756Z,5.76
2019-05-13T01:49:04.914Z,5.71
2019-05-13T01:54:05.591Z,5.86
2019-05-13T01:59:11.187Z,5.73
2019-05-13T02:01:44.043Z,5.87
2019-05-13T02:04:10.045Z,5.84
2019-05-13T02:06:39.301Z,5.74
2019-05-13T02:09:07.646Z,5.66
2019-05-13T02:11:36.011Z,5.59
2019-05-13T02:14:05.614Z,5.56
2019-05-13T02:16:33.874Z,5.50
2019-05-13T02:19:03.962Z,5.46
2019-05-13T02:21:30.372Z,5.44
2019-05-13T02:23:59.687Z,5.45
2019-05-13T02:26:28.024Z,5.43
2019-05-13T02:31:41.486Z,5.50
2019-05-13T02:34:02.167Z,5.45
2019-05-13T02:36:27.406Z,5.41
2019-05-13T02:38:55.747Z,5.40
2019-05-13T02:41:25.041Z,5.45
2019-05-13T02:46:27.627Z,5.44
2019-05-13T02:48:55.993Z,5.49
2019-05-13T02:51:24.349Z,5.47
2019-05-13T02:53:52.713Z,5.55
2019-05-13T02:56:22.633Z,5.59
2019-05-13T02:58:52.564Z,5.58
2019-05-13T03:01:22.098Z,5.61
2019-05-13T03:03:52.545Z,5.59
2019-05-13T03:06:17.377Z,5.63
2019-05-13T03:08:49.885Z,5.37
2019-05-13T03:11:14.058Z,5.32
2019-05-13T03:13:42.694Z,5.32
2019-05-13T03:16:13.206Z,5.34
2019-05-13T03:18:43.568Z,5.37
2019-05-13T03:21:12.414Z,5.39
2019-05-13T03:23:37.286Z,5.44
2019-05-13T03:28:43.090Z,5.38
2019-05-13T03:31:15.918Z,5.32
2019-05-13T03:33:38.091Z,5.45
2019-05-13T03:36:07.861Z,5.56
2019-05-13T03:38:53.699Z,5.56
2019-05-13T03:41:03.421Z,5.56
2019-05-13T03:43:32.530Z,5.58
2019-05-13T03:46:03.050Z,5.55
2019-05-13T03:48:27.909Z,5.54
2019-05-13T03:50:56.279Z,5.60
2019-05-13T03:53:24.621Z,5.70
2019-05-13T03:55:54.163Z,5.61
2019-05-13T03:58:23.897Z,5.55
2019-05-13T04:00:51.886Z,5.45
2019-05-13T04:03:18.049Z,5.47
2019-05-13T04:05:46.398Z,5.48
2019-05-13T04:08:14.753Z,5.55
2019-05-13T04:10:44.019Z,5.67
2019-05-13T04:13:12.583Z,5.63
2019-05-13T04:15:42.846Z,5.73
2019-05-13T04:18:12.293Z,5.62
2019-05-13T04:20:37.481Z,5.60
2019-05-13T04:23:09.031Z,5.73
2019-05-13T04:28:13.338Z,5.62
2019-05-13T04:30:43.347Z,5.58
2019-05-13T04:33:08.335Z,5.63
2019-05-13T04:35:36.710Z,5.54
2019-05-13T04:38:08.919Z,5.69
2019-05-13T04:40:33.539Z,5.75
2019-05-13T04:45:38.139Z,5.73
2019-05-13T04:48:06.520Z,5.73
2019-05-13T04:50:35.247Z,5.81
2019-05-13T04:53:03.697Z,5.85
2019-05-13T04:55:33.970Z,5.69
2019-05-13T04:58:03.558Z,5.81
2019-05-13T05:03:42.050Z,5.90
2019-05-13T05:18:26.793Z,5.99
2019-05-13T05:21:11.789Z,6.21
2019-05-13T05:26:52.203Z,6.55
2019-05-13T05:29:28.980Z,6.63
2019-05-13T05:40:43.049Z,7.42
2019-05-13T05:43:13.363Z,7.39
2019-05-13T05:45:41.725Z,7.55
2019-05-13T05:48:11.855Z,7.58
2019-05-13T05:50:38.659Z,7.82
2019-05-13T05:53:07.001Z,7.98
2019-05-13T05:55:36.306Z,8.24
2019-05-13T05:58:06.275Z,8.44
2019-05-13T06:00:34.609Z,8.37
2019-05-13T06:03:03.004Z,8.37
2019-05-13T06:05:31.875Z,8.04
2019-05-13T06:08:01.845Z,8.22
2019-05-13T06:10:42.546Z,8.45
2019-05-13T06:15:36.060Z,8.07
2019-05-13T06:18:05.365Z,8.67
2019-05-13T06:20:33.725Z,8.98
2019-05-13T06:23:02.312Z,9.27
2019-05-13T06:25:33.676Z,9.15
2019-05-13T06:27:58.810Z,9.31
2019-05-13T06:30:27.144Z,9.36
2019-05-13T06:32:56.490Z,9.49
2019-05-13T06:35:25.058Z,9.13
2019-05-13T06:37:54.380Z,9.52
2019-05-13T06:42:57.025Z,9.30
2019-05-13T06:45:26.284Z,9.79
2019-05-13T06:47:54.720Z,9.87
2019-05-13T06:50:23.069Z,9.88
2019-05-13T06:52:51.600Z,9.51
2019-05-13T06:55:21.399Z,9.74
2019-05-13T06:57:51.522Z,10.18
2019-05-13T07:00:21.568Z,9.98
2019-05-13T07:02:51.480Z,9.72
2019-05-13T07:05:17.592Z,9.63
2019-05-13T07:07:45.936Z,9.82
2019-05-13T07:12:51.957Z,9.75
2019-05-13T07:15:22.418Z,10.15
2019-05-13T07:17:51.879Z,10.50
2019-05-13T07:20:17.673Z,10.66
2019-05-13T07:22:46.049Z,10.36
2019-05-13T07:25:15.364Z,10.25
2019-05-13T07:27:43.711Z,10.53
2019-05-13T07:30:12.060Z,10.64
2019-05-13T07:32:42.113Z,10.86
2019-05-13T07:37:43.007Z,10.98
2019-05-13T07:42:52.239Z,10.77
2019-05-13T07:45:21.874Z,10.34
2019-05-13T07:50:24.477Z,11.01
2019-05-13T07:55:27.046Z,11.75
2019-05-13T07:57:55.393Z,11.92
2019-05-13T08:00:25.692Z,12.22
2019-05-13T08:05:28.292Z,11.87
2019-05-13T08:07:56.669Z,12.18
2019-05-13T08:10:25.984Z,12.38
2019-05-13T08:12:55.410Z,12.63
2019-05-13T08:15:25.766Z,12.51
2019-05-13T08:17:54.167Z,13.09
2019-05-13T08:20:22.564Z,12.43
2019-05-13T08:22:51.982Z,12.30
2019-05-13T08:25:19.278Z,11.83
2019-05-13T08:30:28.182Z,11.71
2019-05-13T08:32:57.493Z,11.26
2019-05-13T08:38:06.032Z,11.92
2019-05-13T08:40:35.317Z,12.21
2019-05-13T08:43:06.646Z,11.93
2019-05-13T08:45:32.137Z,12.33
2019-05-13T08:48:02.011Z,12.50
2019-05-13T08:50:28.851Z,11.40
2019-05-13T08:52:57.245Z,12.15
2019-05-13T08:55:25.669Z,12.66
2019-05-13T09:03:06.385Z,12.35
2019-05-13T09:05:33.882Z,11.91
2019-05-13T09:08:02.245Z,12.69
2019-05-13T09:10:33.155Z,12.47
2019-05-13T09:13:02.190Z,11.25
2019-05-13T09:18:05.725Z,10.46
2019-05-13T09:20:34.134Z,11.18
2019-05-13T09:23:04.357Z,11.43
2019-05-13T09:25:34.591Z,11.64
2019-05-13T09:28:03.255Z,12.11
2019-05-13T09:30:33.732Z,11.92
2019-05-13T09:33:02.157Z,12.34
2019-05-13T09:35:31.561Z,11.80
2019-05-13T09:37:58.956Z,12.32
2019-05-13T09:40:28.273Z,12.98
2019-05-13T09:42:56.661Z,13.51
2019-05-13T09:45:25.035Z,13.41
2019-05-13T09:47:53.372Z,14.07
2019-05-13T09:50:29.426Z,14.04
2019-05-13T09:52:51.751Z,13.51
2019-05-13T09:55:27.683Z,12.10
2019-05-13T10:00:25.208Z,11.79
2019-05-13T10:02:53.596Z,11.87
2019-05-13T10:05:22.858Z,11.86
2019-05-13T10:07:51.398Z,10.60
2019-05-13T10:10:22.130Z,10.20
2019-05-13T10:13:07.281Z,10.77
2019-05-13T10:15:16.503Z,12.83
2019-05-13T10:17:44.852Z,16.57
2019-05-13T10:20:13.228Z,19.55
2019-05-13T10:22:41.930Z,19.09
2019-05-13T10:25:12.033Z,18.11
2019-05-13T10:27:41.329Z,19.31
2019-05-13T10:30:07.669Z,20.40
2019-05-13T10:35:12.369Z,19.85
2019-05-13T10:37:42.774Z,20.57
2019-05-13T10:40:11.597Z,18.86
2019-05-13T10:42:39.480Z,16.15
2019-05-13T10:45:07.865Z,17.02
2019-05-13T10:47:36.206Z,16.33
2019-05-13T10:50:05.718Z,16.03
2019-05-13T10:52:34.088Z,15.82
2019-05-13T10:57:36.721Z,20.08
2019-05-13T11:00:08.030Z,18.36
2019-05-13T11:02:36.464Z,20.32
2019-05-13T11:05:04.886Z,19.57
2019-05-13T11:07:33.283Z,22.86
2019-05-13T11:10:02.294Z,23.02
2019-05-13T11:12:30.144Z,21.91
2019-05-13T11:14:58.559Z,21.22
2019-05-13T11:20:03.480Z,18.03
2019-05-13T11:22:32.147Z,19.85
2019-05-13T11:24:59.389Z,20.93
2019-05-13T11:27:27.293Z,19.46
2019-05-13T11:29:55.648Z,16.85
2019-05-13T11:32:24.014Z,18.05
2019-05-13T11:34:53.228Z,16.54
2019-05-13T11:37:23.215Z,19.70
2019-05-13T11:39:51.224Z,22.17
2019-05-13T11:42:17.513Z,24.71
2019-05-13T11:44:45.868Z,24.92
2019-05-13T11:47:14.228Z,22.00
2019-05-13T11:49:42.841Z,17.91
2019-05-13T11:52:11.593Z,18.82
2019-05-13T11:57:13.670Z,21.06
2019-05-13T11:59:43.127Z,18.96
2019-05-13T12:02:13.588Z,18.50
2019-05-13T12:04:42.998Z,19.48
2019-05-13T12:07:08.060Z,21.24
2019-05-13T12:09:36.400Z,20.61
2019-05-13T12:12:04.764Z,21.17
2019-05-13T12:14:44.208Z,21.26
2019-05-13T12:17:02.272Z,19.36
2019-05-13T12:19:29.819Z,19.10
2019-05-13T12:21:58.176Z,17.51
2019-05-13T12:24:27.528Z,16.50
2019-05-13T12:26:55.892Z,16.07
2019-05-13T12:29:24.237Z,15.07
2019-05-13T12:31:52.945Z,15.12
2019-05-13T12:34:22.851Z,15.44
2019-05-13T12:36:49.325Z,19.71
2019-05-13T12:39:17.649Z,22.87
2019-05-13T12:41:46.061Z,23.84
2019-05-13T12:44:14.691Z,25.40
2019-05-13T12:46:49.976Z,22.80
2019-05-13T12:49:14.545Z,20.38
2019-05-13T12:51:43.963Z,18.31
2019-05-13T12:54:13.671Z,17.32
2019-05-13T12:56:38.449Z,16.43
2019-05-13T12:59:07.758Z,15.12
2019-05-13T13:01:36.115Z,14.15
2019-05-13T13:04:04.458Z,13.65
2019-05-13T13:06:40.341Z,15.67
2019-05-13T13:09:01.189Z,19.23
2019-05-13T13:11:32.080Z,20.73
2019-05-13T13:13:59.997Z,20.88
2019-05-13T13:16:34.069Z,19.22
2019-05-13T13:18:54.653Z,18.04
2019-05-13T13:21:28.579Z,16.12
2019-05-13T13:23:51.358Z,16.27
2019-05-13T13:26:21.736Z,16.94
2019-05-13T13:28:48.106Z,17.17
2019-05-13T13:31:16.444Z,19.61
2019-05-13T13:33:45.769Z,20.20
2019-05-13T13:36:15.432Z,20.83
2019-05-13T13:38:43.865Z,22.44
2019-05-13T13:41:09.900Z,23.28
2019-05-13T13:43:38.297Z,26.26
2019-05-13T13:46:20.839Z,27.66
2019-05-13T13:48:35.009Z,27.30
2019-05-13T13:51:04.971Z,23.51
2019-05-13T13:53:33.322Z,23.69
2019-05-13T13:56:02.266Z,17.96
2019-05-13T13:58:28.461Z,16.48
2019-05-13T14:01:07.020Z,15.44
2019-05-13T14:03:25.145Z,15.07
2019-05-13T14:05:54.144Z,18.26
2019-05-13T14:08:21.856Z,20.67
2019-05-13T14:10:51.457Z,21.35
2019-05-13T14:13:18.665Z,18.60
2019-05-13T14:15:57.163Z,17.76
2019-05-13T14:18:27.023Z,16.88
2019-05-13T14:20:55.926Z,17.18
2019-05-13T14:23:24.275Z,17.88
2019-05-13T14:28:35.843Z,18.26
2019-05-13T14:31:04.160Z,18.11
2019-05-13T14:33:35.214Z,18.20
2019-05-13T14:36:02.813Z,16.75
2019-05-13T14:38:34.086Z,18.05
2019-05-13T14:41:09.137Z,20.79
2019-05-13T14:43:35.303Z,23.00
2019-05-13T14:46:07.762Z,22.71
2019-05-13T14:51:12.620Z,19.68
2019-05-13T14:53:41.631Z,16.54
2019-05-13T14:56:09.384Z,17.08
2019-05-13T14:58:37.788Z,15.36
2019-05-13T15:01:19.770Z,15.79
2019-05-13T15:03:41.586Z,20.03
2019-05-13T15:06:14.180Z,24.86
2019-05-13T15:08:42.600Z,28.16
2019-05-13T15:11:14.979Z,27.81
2019-05-13T15:13:43.354Z,28.81
2019-05-13T15:16:18.531Z,25.33
2019-05-13T15:18:52.536Z,20.65
2019-05-13T15:21:27.356Z,20.01
2019-05-13T15:23:56.067Z,19.77
2019-05-13T15:26:24.431Z,18.17
2019-05-13T15:29:02.604Z,21.15
2019-05-13T15:31:27.333Z,26.26
2019-05-13T15:34:08.510Z,27.73
2019-05-13T15:39:20.999Z,25.25
2019-05-13T15:44:26.740Z,24.89
2019-05-13T15:46:55.080Z,24.10
2019-05-13T15:49:23.463Z,25.34
2019-05-13T15:52:01.750Z,26.90
2019-05-13T15:54:28.042Z,27.02
2019-05-13T15:56:56.439Z,30.53
2019-05-13T15:59:29.699Z,28.28
2019-05-13T16:02:04.322Z,29.50
2019-05-13T16:04:32.906Z,30.11
2019-05-13T16:07:08.925Z,26.97
2019-05-13T16:09:52.672Z,22.01
2019-05-13T16:12:20.842Z,19.13
2019-05-13T16:14:54.392Z,18.69
2019-05-13T16:17:37.573Z,20.66
2019-05-13T16:20:16.380Z,19.54
2019-05-13T16:22:45.739Z,16.34
2019-05-13T16:25:15.068Z,16.59
2019-05-13T16:27:43.508Z,16.73
2019-05-13T16:32:57.817Z,16.69
2019-05-13T16:35:26.200Z,16.70
2019-05-13T16:37:58.520Z,15.84
2019-05-13T16:40:26.890Z,16.27
2019-05-13T16:42:58.292Z,16.87
2019-05-13T16:45:41.654Z,17.33
2019-05-13T16:48:13.090Z,17.01
2019-05-13T16:50:43.400Z,15.88
2019-05-13T16:55:52.097Z,15.29
2019-05-13T17:01:05.664Z,13.83
2019-05-13T17:03:41.526Z,14.16
2019-05-13T17:08:48.759Z,14.31
2019-05-13T17:11:22.518Z,14.22
2019-05-13T17:13:51.946Z,14.19
2019-05-13T17:16:33.944Z,14.04
2019-05-13T17:19:02.363Z,13.74
2019-05-13T17:21:42.804Z,13.66
2019-05-13T17:24:12.393Z,13.36
2019-05-13T17:26:46.271Z,13.90
2019-05-13T17:29:14.633Z,13.77
2019-05-13T17:32:06.347Z,13.70
2019-05-13T17:34:34.730Z,13.24
2019-05-13T17:37:03.216Z,13.22
2019-05-13T17:39:34.742Z,13.26
2019-05-13T17:44:52.996Z,13.21
2019-05-13T17:47:21.900Z,13.03
2019-05-13T17:49:52.140Z,12.71
2019-05-13T17:52:19.108Z,12.51
2019-05-13T17:54:47.479Z,12.64
2019-05-13T17:57:21.544Z,12.42
2019-05-13T17:59:48.196Z,12.52
2019-05-13T18:02:16.549Z,12.42
2019-05-13T18:07:22.136Z,12.54
2019-05-13T18:09:52.047Z,12.30
2019-05-13T18:12:22.147Z,12.16
2019-05-13T18:17:24.671Z,12.13
2019-05-13T18:19:53.045Z,12.24
2019-05-13T18:22:22.361Z,12.31
2019-05-13T18:27:26.980Z,11.76
2019-05-13T18:29:55.348Z,11.84
2019-05-13T18:35:07.965Z,11.65
2019-05-13T18:37:37.428Z,11.41
2019-05-13T18:40:05.846Z,11.26
2019-05-13T18:45:11.658Z,11.28
2019-05-13T18:47:39.893Z,11.33
2019-05-13T18:50:11.375Z,11.15
2019-05-13T18:52:37.646Z,11.03
2019-05-13T18:57:40.269Z,11.07
2019-05-13T19:00:11.147Z,10.86
2019-05-13T19:05:18.266Z,10.72
2019-05-13T19:07:46.642Z,10.60
2019-05-13T19:10:14.981Z,10.45
2019-05-13T19:12:43.358Z,10.16
2019-05-13T19:15:17.844Z,9.83
2019-05-13T19:17:46.280Z,9.69
2019-05-13T19:20:15.609Z,9.63
2019-05-13T19:22:43.964Z,9.50
2019-05-13T19:25:13.448Z,9.52
2019-05-13T19:27:41.868Z,9.54
2019-05-13T19:30:12.215Z,9.62
2019-05-13T19:32:38.606Z,9.55
2019-05-13T19:35:11.695Z,9.47
2019-05-13T19:37:42.220Z,9.53
2019-05-13T19:40:07.941Z,9.50
2019-05-13T19:42:37.217Z,9.52
2019-05-13T19:45:08.725Z,9.37
2019-05-13T19:47:38.060Z,9.43
2019-05-13T19:50:06.405Z,9.13
2019-05-13T19:52:34.744Z,8.96
2019-05-13T19:55:03.119Z,8.67
2019-05-13T19:57:31.824Z,8.65
2019-05-13T20:00:01.367Z,8.75
2019-05-13T20:02:31.423Z,8.73
2019-05-13T20:04:57.458Z,8.58
2019-05-13T20:07:27.732Z,8.41
2019-05-13T20:09:56.104Z,8.32
2019-05-13T20:12:24.506Z,8.18
2019-05-13T20:14:54.820Z,8.04
2019-05-13T20:17:23.160Z,8.08
2019-05-13T20:22:27.803Z,8.19
2019-05-13T20:24:56.164Z,8.17
2019-05-13T20:27:24.635Z,8.20
2019-05-13T20:29:56.917Z,8.23
2019-05-13T20:32:25.253Z,8.06
2019-05-13T20:34:54.648Z,7.91
2019-05-13T20:37:23.004Z,7.87
2019-05-13T20:39:53.373Z,7.89
2019-05-13T20:42:23.367Z,7.94
2019-05-13T20:44:55.862Z,8.07
2019-05-13T20:47:24.215Z,8.42
2019-05-13T20:50:01.497Z,8.11
2019-05-13T20:52:22.182Z,8.25
2019-05-13T20:54:51.123Z,8.16
2019-05-13T20:57:17.786Z,8.30
2019-05-13T20:59:46.136Z,8.39
2019-05-13T21:02:14.495Z,8.56
2019-05-13T21:07:22.123Z,8.52
2019-05-13T21:09:51.280Z,8.46
2019-05-13T21:12:18.857Z,8.41
2019-05-13T21:14:47.204Z,8.49
2019-05-13T21:17:15.575Z,8.57
2019-05-13T21:19:43.908Z,8.34
2019-05-13T21:22:12.262Z,8.13
2019-05-13T21:24:41.236Z,8.11
2019-05-13T21:27:09.073Z,8.05
2019-05-13T21:32:13.685Z,7.78
2019-05-13T21:34:42.096Z,7.66
2019-05-13T21:37:11.492Z,7.44
2019-05-13T21:39:41.098Z,7.63
2019-05-13T21:42:11.302Z,7.57
2019-05-13T21:44:39.151Z,7.74
2019-05-13T21:47:07.500Z,7.78
2019-05-13T21:54:48.341Z,7.85
2019-05-13T21:57:16.703Z,7.93
2019-05-13T21:59:45.272Z,7.86
2019-05-13T22:02:13.403Z,7.88
2019-05-13T22:04:41.738Z,7.91
2019-05-13T22:07:12.189Z,7.84
2019-05-13T22:09:38.420Z,7.99
2019-05-13T22:12:06.788Z,7.81
2019-05-13T22:14:36.070Z,7.68
2019-05-13T22:17:04.478Z,7.44
2019-05-13T22:19:32.837Z,7.34
2019-05-13T22:22:02.279Z,7.24
2019-05-13T22:24:31.228Z,7.18
2019-05-13T22:26:58.870Z,7.17
2019-05-13T22:29:27.215Z,7.06
2019-05-13T22:31:55.585Z,6.99
2019-05-13T22:34:23.919Z,6.87
2019-05-13T22:39:32.159Z,6.71
2019-05-13T22:41:56.912Z,6.59
2019-05-13T22:44:26.337Z,6.53
2019-05-13T22:46:54.692Z,6.37
2019-05-13T22:49:23.039Z,6.22
2019-05-13T22:51:51.613Z,6.06
2019-05-13T22:54:21.208Z,6.02
2019-05-13T22:56:52.043Z,5.86
2019-05-13T22:59:17.459Z,5.68
2019-05-13T23:01:45.792Z,5.56
2019-05-13T23:04:14.132Z,5.40
2019-05-13T23:06:42.475Z,5.31
2019-05-13T23:09:12.523Z,5.20
2019-05-13T23:11:41.616Z,5.08
2019-05-13T23:14:10.907Z,5.01
2019-05-13T23:16:42.155Z,4.97
2019-05-13T23:19:08.450Z,4.89
2019-05-13T23:21:36.797Z,4.79
2019-05-13T23:24:05.175Z,4.75
2019-05-13T23:29:08.629Z,4.61
2019-05-13T23:31:37.029Z,4.54
2019-05-13T23:34:07.364Z,4.47
2019-05-13T23:36:35.742Z,4.36
2019-05-13T23:39:04.117Z,4.31
2019-05-13T23:41:32.458Z,4.17
2019-05-13T23:44:01.461Z,4.16
2019-05-13T23:46:31.362Z,4.05
2019-05-13T23:48:58.739Z,3.99
2019-05-13T23:51:28.045Z,3.93
2019-05-13T23:53:56.440Z,3.90
2019-05-13T23:56:28.471Z,3.84
